Time;durP1;ratioP1;P1;durP2;ratioP2;P2;SDS_P1;SDS_P2;PMS_P1;PMS_P2;Temp;Humidity;BMP_temperature;BMP_pressure;BME280_temperature;BME280_humidity;BME280_pressure;Samples;Min_cycle;Max_cycle;Signal;HPM_P1;HPM_P2
2023/08/27 00:00:14;;;;;;;;;1.00;1.00;;;;;19.50;65.52;100272.25;5053551;28;45376;-79
2023/08/27 00:02:45;;;;;;;;;0.00;0.00;;;;;19.49;65.07;100263.44;5066479;28;45397;-79
2023/08/27 00:05:11;;;;;;;;;0.00;0.00;;;;;19.40;65.47;100235.31;5067872;27;46947;-77
2023/08/27 00:07:36;;;;;;;;;1.00;0.00;;;;;19.40;64.91;100247.69;5059664;28;45827;-77
2023/08/27 00:10:03;;;;;;;;;1.00;1.00;;;;;19.53;64.87;100259.00;5050143;28;45400;-78
2023/08/27 00:12:29;;;;;;;;;0.00;0.00;;;;;19.53;64.88;100253.69;5071795;28;45705;-77
2023/08/27 00:14:55;;;;;;;;;1.00;0.00;;;;;19.50;65.36;100251.97;5069706;28;46175;-77
2023/08/27 00:17:21;;;;;;;;;0.00;0.00;;;;;19.53;65.57;100253.69;5066487;28;45442;-77
2023/08/27 00:19:47;;;;;;;;;0.00;0.00;;;;;19.42;65.46;100228.22;5067224;28;45480;-78
2023/08/27 00:22:13;;;;;;;;;0.00;0.00;;;;;19.48;64.68;100229.91;5070087;28;45387;-77
2023/08/27 00:24:38;;;;;;;;;0.00;0.00;;;;;19.61;65.84;100250.06;5064261;28;47600;-77
2023/08/27 00:27:05;;;;;;;;;0.33;0.00;;;;;19.59;65.58;100250.97;5069327;28;46088;-78
2023/08/27 00:29:32;;;;;;;;;0.33;0.33;;;;;19.50;66.52;100254.63;5062373;28;45399;-77
2023/08/27 00:31:57;;;;;;;;;0.00;0.00;;;;;19.48;66.75;100251.97;5050685;28;45601;-78
2023/08/27 00:34:34;;;;;;;;;1.00;0.00;;;;;19.44;66.84;100238.81;5066936;28;46080;-77
2023/08/27 00:37:01;;;;;;;;;1.67;1.67;;;;;19.61;67.72;100265.09;5076544;28;45489;-77
2023/08/27 00:39:29;;;;;;;;;0.00;0.00;;;;;19.48;67.55;100243.16;5067102;28;45463;-77
2023/08/27 00:41:55;;;;;;;;;0.67;0.67;;;;;19.57;67.71;100263.38;5069343;28;45437;-77
2023/08/27 00:44:21;;;;;;;;;0.00;0.00;;;;;19.61;66.98;100258.00;5062594;28;46048;-77
2023/08/27 00:46:47;;;;;;;;;0.67;0.00;;;;;19.59;66.89;100251.84;5064341;28;45379;-77
2023/08/27 00:49:15;;;;;;;;;0.00;0.00;;;;;19.61;67.01;100249.19;5065424;28;45567;-77
2023/08/27 00:51:42;;;;;;;;;0.67;0.00;;;;;19.58;67.12;100242.16;5069271;28;45434;-77
2023/08/27 00:54:08;;;;;;;;;0.33;0.33;;;;;19.48;67.09;100227.28;5065575;28;45357;-76
2023/08/27 00:56:34;;;;;;;;;0.00;0.00;;;;;19.50;66.66;100235.19;5062087;28;45608;-77
2023/08/27 00:59:01;;;;;;;;;0.67;0.67;;;;;19.58;66.92;100243.94;5064087;28;45355;-77
2023/08/27 01:01:29;;;;;;;;;0.33;0.33;;;;;19.60;66.53;100248.31;5051512;28;45426;-78
2023/08/27 01:03:54;;;;;;;;;1.00;0.67;;;;;19.53;66.66;100238.69;5070130;28;45758;-77
2023/08/27 01:06:20;;;;;;;;;0.33;0.00;;;;;19.52;66.21;100250.19;5061543;28;45429;-78
2023/08/27 01:09:09;;;;;;;;;1.00;1.00;;;;;19.49;65.94;100244.91;5066828;28;46108;-77
2023/08/27 01:12:04;;;;;;;;;1.00;0.67;;;;;19.49;66.30;100250.22;5068518;28;45442;-77
2023/08/27 01:14:34;;;;;;;;;0.00;0.00;;;;;19.39;67.35;100254.72;5068493;28;46530;-78
2023/08/27 01:17:03;;;;;;;;;1.00;1.00;;;;;19.36;67.08;100249.47;5075223;28;45495;-79
2023/08/27 01:19:30;;;;;;;;;1.00;0.00;;;;;19.37;66.19;100248.56;5065597;28;45438;-77
2023/08/27 01:21:56;;;;;;;;;0.00;0.00;;;;;19.45;66.79;100257.31;5061374;28;45465;-77
2023/08/27 01:24:22;;;;;;;;;1.00;1.00;;;;;19.48;65.97;100248.47;5062848;28;46512;-77
2023/08/27 01:26:57;;;;;;;;;1.00;0.00;;;;;19.57;65.73;100247.47;5066990;28;45563;-77
2023/08/27 01:29:45;;;;;;;;;1.67;0.67;;;;;19.64;65.74;100249.16;5059881;28;45576;-77
2023/08/27 01:32:53;;;;;;;;;1.00;1.00;;;;;19.61;65.35;100231.50;5066392;28;45501;-77
2023/08/27 01:35:20;;;;;;;;;1.00;1.00;;;;;19.47;67.16;100228.16;5060929;28;45411;-76
2023/08/27 01:37:45;;;;;;;;;1.00;1.00;;;;;19.36;67.42;100190.31;5069402;28;45417;-76
2023/08/27 01:40:11;;;;;;;;;1.00;0.00;;;;;19.48;67.69;100227.28;5043520;28;45387;-77
2023/08/27 01:42:37;;;;;;;;;1.00;0.33;;;;;19.54;66.59;100224.53;5044134;28;45443;-77
2023/08/27 01:45:07;;;;;;;;;1.33;1.00;;;;;19.60;66.39;100234.19;5074582;28;46175;-76
2023/08/27 01:47:33;;;;;;;;;1.00;1.00;;;;;19.68;66.05;100241.16;5058747;28;45324;-78
2023/08/27 01:49:58;;;;;;;;;1.00;1.00;;;;;19.58;66.32;100225.41;5060635;28;45302;-77
2023/08/27 01:52:24;;;;;;;;;1.67;1.00;;;;;19.69;66.45;100220.81;5065125;28;45531;-76
2023/08/27 01:54:50;;;;;;;;;0.33;0.00;;;;;19.55;65.07;100213.03;5063148;28;45474;-76
2023/08/27 01:57:15;;;;;;;;;0.67;0.00;;;;;19.55;65.99;100217.47;5069161;28;45727;-76
2023/08/27 01:59:41;;;;;;;;;1.67;1.00;;;;;19.59;66.93;100235.94;5043116;28;45539;-76
2023/08/27 02:02:07;;;;;;;;;1.00;1.00;;;;;19.52;67.47;100234.28;5063084;28;45486;-76
2023/08/27 02:04:32;;;;;;;;;2.00;1.00;;;;;19.55;66.83;100233.38;5049841;28;47928;-77
2023/08/27 02:06:58;;;;;;;;;2.00;1.00;;;;;19.54;66.82;100228.97;5063684;28;45482;-76
2023/08/27 02:09:23;;;;;;;;;0.33;0.00;;;;;19.36;66.82;100195.59;5045267;28;45534;-76
2023/08/27 02:11:50;;;;;;;;;0.67;0.67;;;;;19.54;66.25;100223.69;5044033;28;45529;-75
2023/08/27 02:14:16;;;;;;;;;1.00;1.00;;;;;19.47;66.25;100218.44;5051032;28;46318;-77
2023/08/27 02:16:41;;;;;;;;;0.00;0.00;;;;;19.23;66.56;100192.22;5071559;28;45303;-77
2023/08/27 02:19:07;;;;;;;;;1.00;1.00;;;;;19.26;66.28;100214.28;5066601;28;45316;-77
2023/08/27 02:21:33;;;;;;;;;0.00;0.00;;;;;19.16;66.18;100204.66;5063975;28;45517;-79
2023/08/27 02:23:59;;;;;;;;;1.00;0.33;;;;;19.04;66.57;100203.03;5058845;28;46301;-77
2023/08/27 02:26:25;;;;;;;;;0.33;0.33;;;;;18.88;66.43;100180.25;5066803;28;45442;-77
2023/08/27 02:28:51;;;;;;;;;1.00;0.00;;;;;18.72;67.32;100171.56;5063604;28;45422;-78
2023/08/27 02:31:16;;;;;;;;;0.00;0.00;;;;;18.75;66.83;100187.38;5073867;28;45506;-77
2023/08/27 02:33:44;;;;;;;;;0.00;0.00;;;;;18.70;66.83;100186.53;5049176;28;46229;-77
2023/08/27 02:36:09;;;;;;;;;1.00;0.00;;;;;18.79;66.78;100214.72;5061103;28;45529;-77
2023/08/27 02:38:35;;;;;;;;;0.33;0.33;;;;;18.56;66.70;100177.84;5064271;28;45382;-77
2023/08/27 02:41:01;;;;;;;;;0.00;0.00;;;;;18.59;66.71;100188.44;5068663;28;45478;-80
2023/08/27 02:43:27;;;;;;;;;2.33;0.00;;;;;18.63;67.48;100206.91;5061477;28;46594;-77
2023/08/27 02:45:52;;;;;;;;;0.00;0.00;;;;;18.67;67.10;100210.41;5076224;28;45420;-76
2023/08/27 02:48:18;;;;;;;;;0.00;0.00;;;;;18.73;66.47;100202.41;5060660;28;45391;-78
2023/08/27 02:50:44;;;;;;;;;0.00;0.00;;;;;18.75;66.82;100200.63;5063953;28;45412;-77
2023/08/27 02:53:10;;;;;;;;;0.00;0.00;;;;;18.75;67.23;100205.91;5065384;28;45495;-76
2023/08/27 02:55:35;;;;;;;;;0.00;0.00;;;;;18.70;67.27;100186.53;5043824;28;45490;-77
2023/08/27 02:58:02;;;;;;;;;0.00;0.00;;;;;18.82;66.80;100202.38;5059228;28;45706;-80
2023/08/27 03:00:30;;;;;;;;;0.00;0.00;;;;;18.84;67.01;100207.63;5047896;28;45536;-78
2023/08/27 03:02:56;;;;;;;;;0.00;0.00;;;;;18.80;67.21;100204.16;5066923;28;45540;-76
2023/08/27 03:05:22;;;;;;;;;0.00;0.00;;;;;18.79;66.60;100197.09;5059173;28;45536;-76
2023/08/27 03:07:48;;;;;;;;;0.33;0.33;;;;;18.69;66.44;100176.88;5043642;28;45366;-76
2023/08/27 03:10:14;;;;;;;;;0.33;0.33;;;;;18.72;66.49;100183.88;5064780;28;45316;-76
2023/08/27 03:12:39;;;;;;;;;0.00;0.00;;;;;18.80;66.35;100193.56;5068775;28;45509;-77
2023/08/27 03:15:05;;;;;;;;;0.00;0.00;;;;;18.76;66.52;100194.44;5070563;28;45469;-77
2023/08/27 03:17:33;;;;;;;;;0.00;0.00;;;;;18.74;66.43;100183.00;5068941;28;45546;-77
2023/08/27 03:20:00;;;;;;;;;0.33;0.00;;;;;18.71;65.78;100169.78;5061688;27;45339;-76
2023/08/27 03:22:27;;;;;;;;;0.00;0.00;;;;;18.67;65.92;100171.59;5047117;28;45671;-75
2023/08/27 03:24:54;;;;;;;;;0.00;0.00;;;;;18.65;66.08;100161.91;5070515;27;45382;-76
2023/08/27 03:27:20;;;;;;;;;0.00;0.00;;;;;18.65;66.35;100178.66;5066833;27;45306;-77
2023/08/27 03:29:47;;;;;;;;;0.00;0.00;;;;;18.73;65.93;100183.00;5047357;27;45456;-76
2023/08/27 03:32:15;;;;;;;;;0.33;0.00;;;;;18.63;65.68;100177.78;5066735;27;45501;-77
2023/08/27 03:34:40;;;;;;;;;1.00;1.00;;;;;18.75;65.11;100195.31;5055072;28;45418;-76
2023/08/27 03:37:06;;;;;;;;;0.00;0.00;;;;;18.72;64.90;100205.97;5067308;27;45493;-76
2023/08/27 03:39:32;;;;;;;;;0.33;0.33;;;;;18.64;65.04;100198.09;5062839;28;45399;-77
2023/08/27 03:41:57;;;;;;;;;0.00;0.00;;;;;18.56;65.80;100183.16;5070821;28;45942;-77
2023/08/27 03:44:24;;;;;;;;;0.00;0.00;;;;;18.65;66.65;100199.81;5061813;28;45351;-77
2023/08/27 03:46:52;;;;;;;;;0.00;0.00;;;;;18.64;66.21;100191.88;5073351;28;45430;-76
2023/08/27 03:49:17;;;;;;;;;0.00;0.00;;;;;18.58;66.37;100186.66;5065279;28;45541;-76
2023/08/27 03:51:44;;;;;;;;;1.00;0.00;;;;;18.63;66.16;100196.31;5059198;28;46651;-77
2023/08/27 03:54:10;;;;;;;;;0.00;0.00;;;;;18.56;65.99;100175.22;5061575;28;45402;-76
2023/08/27 03:56:37;;;;;;;;;1.67;0.00;;;;;18.73;66.20;100215.63;5068883;28;45489;-77
2023/08/27 03:59:04;;;;;;;;;0.00;0.00;;;;;18.66;66.83;100198.03;5071110;28;45607;-77
2023/08/27 04:01:30;;;;;;;;;0.67;0.67;;;;;18.87;67.92;100221.72;5073079;28;45426;-78
2023/08/27 04:03:56;;;;;;;;;0.00;0.00;;;;;18.79;68.28;100220.91;5067541;28;45393;-77
2023/08/27 04:06:21;;;;;;;;;0.00;0.00;;;;;18.83;68.16;100229.69;5049392;28;45430;-76
2023/08/27 04:08:48;;;;;;;;;0.00;0.00;;;;;18.75;68.60;100219.16;5074900;28;45595;-75
2023/08/27 04:11:17;;;;;;;;;0.00;0.00;;;;;18.82;67.93;100228.84;5080929;27;46684;-76
2023/08/27 04:13:43;;;;;;;;;0.00;0.00;;;;;18.54;67.59;100175.22;5081021;28;45272;-76
2023/08/27 04:16:10;;;;;;;;;0.33;0.33;;;;;18.80;67.99;100208.53;5081165;28;45524;-76
2023/08/27 04:18:36;;;;;;;;;0.67;0.00;;;;;18.79;68.43;100215.59;5081202;28;45484;-76
2023/08/27 04:21:03;;;;;;;;;0.00;0.00;;;;;18.77;68.60;100213.84;5059476;28;46335;-77
2023/08/27 04:23:30;;;;;;;;;0.67;0.67;;;;;18.74;68.82;100203.28;5041802;28;45545;-76
2023/08/27 04:25:56;;;;;;;;;1.00;0.33;;;;;18.71;69.06;100205.97;5041602;28;45444;-77
2023/08/27 04:28:22;;;;;;;;;1.00;1.00;;;;;18.76;68.67;100218.28;5060516;28;45433;-76
2023/08/27 04:30:51;;;;;;;;;1.00;0.00;;;;;18.73;68.99;100222.69;5059637;28;46090;-76
2023/08/27 04:33:18;;;;;;;;;2.00;1.00;;;;;18.56;69.60;100193.72;5060134;28;45508;-76
2023/08/27 04:35:48;;;;;;;;;1.00;0.00;;;;;18.56;69.89;100196.38;5060580;28;45455;-77
2023/08/27 04:38:13;;;;;;;;;1.00;1.00;;;;;18.68;70.60;100225.38;5059605;28;45494;-75
2023/08/27 04:40:39;;;;;;;;;0.00;0.00;;;;;18.56;69.08;100209.59;5059849;28;45414;-77
2023/08/27 04:43:07;;;;;;;;;1.00;0.00;;;;;18.74;68.86;100219.16;5060300;28;45442;-76
2023/08/27 04:45:32;;;;;;;;;1.00;1.00;;;;;18.76;68.79;100222.66;5042337;28;45335;-77
2023/08/27 04:47:58;;;;;;;;;0.00;0.00;;;;;18.75;69.44;100242.97;5042085;28;45549;-76
2023/08/27 04:50:24;;;;;;;;;1.00;1.00;;;;;18.70;70.20;100257.97;5060276;28;45569;-77
2023/08/27 04:52:50;;;;;;;;;1.00;1.00;;;;;18.66;70.79;100253.59;5060339;28;45429;-77
2023/08/27 04:55:16;;;;;;;;;0.00;0.00;;;;;18.53;70.29;100225.50;5042278;28;45441;-76
2023/08/27 04:57:45;;;;;;;;;1.00;0.00;;;;;18.69;69.92;100243.00;5059786;28;45355;-76
2023/08/27 05:00:25;;;;;;;;;2.00;1.67;;;;;18.61;70.05;100250.13;5058713;28;45631;-77
2023/08/27 05:02:50;;;;;;;;;0.33;0.33;;;;;18.49;69.74;100251.09;5041548;28;45261;-76
2023/08/27 05:05:16;;;;;;;;;1.33;1.00;;;;;18.42;70.97;100252.94;5060045;28;45481;-76
2023/08/27 05:07:43;;;;;;;;;0.00;0.00;;;;;18.55;70.11;100258.13;5060296;28;45295;-77
2023/08/27 05:10:09;;;;;;;;;1.00;1.00;;;;;18.54;69.79;100246.63;5059381;28;46409;-77
2023/08/27 05:12:35;;;;;;;;;1.67;1.00;;;;;18.64;69.62;100265.97;5073940;27;45876;-76
2023/08/27 05:15:00;;;;;;;;;1.33;0.00;;;;;18.65;69.19;100254.50;5040054;28;45565;-76
2023/08/27 05:17:26;;;;;;;;;1.67;1.00;;;;;18.65;68.67;100254.50;5058786;28;45427;-77
2023/08/27 05:19:52;;;;;;;;;0.67;0.67;;;;;18.49;69.07;100230.81;5046572;28;47526;-77
2023/08/27 05:22:17;;;;;;;;;1.33;1.33;;;;;18.67;68.76;100266.84;5050460;28;45449;-78
2023/08/27 05:24:43;;;;;;;;;1.00;0.67;;;;;18.55;68.87;100240.47;5059555;28;45494;-77
2023/08/27 05:27:08;;;;;;;;;0.33;0.33;;;;;18.64;69.02;100247.44;5067194;28;45600;-76
2023/08/27 05:29:34;;;;;;;;;1.00;0.67;;;;;18.68;68.10;100243.88;5072439;28;45921;-76
2023/08/27 05:32:00;;;;;;;;;2.00;2.00;;;;;18.57;67.98;100225.47;5059453;28;45271;-78
2023/08/27 05:34:26;;;;;;;;;2.00;2.00;;;;;18.69;67.70;100256.25;5077419;28;45625;-77
2023/08/27 05:36:52;;;;;;;;;1.00;1.00;;;;;18.61;67.99;100237.78;5077597;28;45436;-77
2023/08/27 05:39:18;;;;;;;;;1.00;1.00;;;;;18.63;67.95;100245.72;5078632;28;45241;-77
2023/08/27 05:41:44;;;;;;;;;1.00;1.00;;;;;18.64;67.78;100251.00;5079022;28;45367;-76
2023/08/27 05:44:10;;;;;;;;;1.00;1.00;;;;;18.58;67.82;100240.47;5078609;28;45472;-77
2023/08/27 05:46:35;;;;;;;;;1.33;1.00;;;;;18.52;68.00;100240.47;5060652;28;45574;-77
2023/08/27 05:49:01;;;;;;;;;1.67;1.00;;;;;18.62;68.19;100266.00;5074021;27;45938;-75
2023/08/27 05:51:27;;;;;;;;;1.67;1.00;;;;;18.47;68.97;100248.47;5086994;27;45564;-76
2023/08/27 05:53:53;;;;;;;;;1.00;1.00;;;;;18.49;68.84;100265.19;5087229;27;45507;-79
2023/08/27 05:56:18;;;;;;;;;1.00;1.00;;;;;18.60;68.23;100280.13;5069809;27;45373;-76
2023/08/27 05:58:44;;;;;;;;;2.67;2.00;;;;;18.54;68.72;100265.16;5089270;27;45624;-75
2023/08/27 06:01:10;;;;;;;;;2.00;1.00;;;;;18.62;68.72;100278.34;5065862;27;45419;-76
2023/08/27 06:03:39;;;;;;;;;1.00;1.00;;;;;18.46;68.91;100288.13;5088248;27;45496;-75
2023/08/27 06:06:09;;;;;;;;;1.00;0.00;;;;;18.27;69.68;100298.84;5079316;27;45617;-76
2023/08/27 06:08:35;;;;;;;;;1.00;1.00;;;;;18.20;69.90;100314.75;5068473;27;47442;-76
2023/08/27 06:11:04;;;;;;;;;2.00;1.00;;;;;18.14;70.27;100304.19;5086783;27;45409;-76
2023/08/27 06:13:30;;;;;;;;;0.67;0.67;;;;;18.19;70.35;100289.19;5078962;27;45408;-75
2023/08/27 06:15:56;;;;;;;;;1.67;1.67;;;;;18.20;70.62;100281.25;5077753;27;45477;-76
2023/08/27 06:18:22;;;;;;;;;2.67;1.33;;;;;18.26;71.26;100290.91;5064322;27;45765;-75
2023/08/27 06:20:49;;;;;;;;;2.00;2.00;;;;;18.17;71.73;100269.81;5085125;27;45531;-76
2023/08/27 06:23:15;;;;;;;;;1.33;1.00;;;;;18.36;71.76;100289.97;5085247;27;45479;-75
2023/08/27 06:25:41;;;;;;;;;3.00;1.00;;;;;18.39;70.79;100271.44;5082621;27;45460;-75
2023/08/27 06:28:07;;;;;;;;;1.00;1.00;;;;;18.63;70.21;100291.56;5059931;28;46757;-79
2023/08/27 06:30:34;;;;;;;;;2.00;1.00;;;;;18.81;69.94;100285.28;5063207;27;45509;-75
2023/08/27 06:33:00;;;;;;;;;3.00;2.00;;;;;18.78;70.19;100266.75;5070094;27;45371;-75
2023/08/27 06:35:26;;;;;;;;;1.67;1.67;;;;;18.91;69.66;100259.63;5063397;27;45827;-76
2023/08/27 06:37:52;;;;;;;;;2.67;2.67;;;;;19.16;70.03;100300.00;5085694;27;46167;-80
2023/08/27 06:40:19;;;;;;;;;2.33;2.00;;;;;19.19;70.03;100292.00;5083112;27;45347;-80
2023/08/27 06:42:45;;;;;;;;;2.00;2.00;;;;;19.43;69.51;100295.31;5059929;28;45448;-76
2023/08/27 06:45:11;;;;;;;;;1.00;1.00;;;;;19.61;69.21;100276.56;5081070;27;45463;-77
2023/08/27 06:47:36;;;;;;;;;1.00;1.00;;;;;19.82;68.64;100277.25;5087356;27;45664;-78
2023/08/27 06:50:06;;;;;;;;;2.67;2.67;;;;;19.99;68.14;100272.59;5086002;27;45735;-73
2023/08/27 06:52:32;;;;;;;;;1.50;1.50;;;;;20.33;67.40;100301.31;5086136;27;45333;-75
2023/08/27 06:54:59;;;;;;;;;3.33;2.67;;;;;20.36;66.46;100268.56;5087534;27;45420;-75
2023/08/27 06:57:25;;;;;;;;;3.00;3.00;;;;;20.51;66.51;100286.03;5086288;27;46251;-76
2023/08/27 06:59:51;;;;;;;;;1.33;1.33;;;;;20.70;65.97;100306.09;5085732;27;45507;-76
2023/08/27 07:02:17;;;;;;;;;1.00;1.00;;;;;20.68;65.89;100302.59;5068866;27;45420;-75
2023/08/27 07:04:43;;;;;;;;;0.67;0.67;;;;;20.70;66.38;100284.88;5084318;27;45780;-76
2023/08/27 07:07:08;;;;;;;;;0.67;0.67;;;;;21.09;64.96;100298.41;5084593;27;45995;-76
2023/08/27 07:09:34;;;;;;;;;1.00;1.00;;;;;21.28;63.74;100290.09;5083687;27;45443;-75
2023/08/27 07:12:00;;;;;;;;;0.67;0.67;;;;;21.92;62.56;100307.47;5082499;27;45420;-76
2023/08/27 07:14:26;;;;;;;;;0.33;0.33;;;;;22.74;59.98;100303.94;5085313;27;45424;-76
2023/08/27 07:16:52;;;;;;;;;2.00;1.00;;;;;22.90;58.85;100242.28;5069234;27;46461;-75
2023/08/27 07:19:17;;;;;;;;;1.00;1.00;;;;;25.10;55.90;100294.53;5057886;28;45607;-75
2023/08/27 07:21:43;;;;;;;;;2.00;2.00;;;;;27.40;50.16;100300.91;5079402;27;45681;-78
2023/08/27 07:24:09;;;;;;;;;1.00;0.00;;;;;28.58;47.73;100259.69;5070478;27;45468;-76
2023/08/27 07:26:34;;;;;;;;;0.00;0.00;;;;;30.03;45.66;100322.22;5082978;27;45580;-76
2023/08/27 07:29:00;;;;;;;;;2.33;2.00;;;;;30.06;44.35;100322.91;5065216;28;45523;-77
2023/08/27 07:31:26;;;;;;;;;1.00;1.00;;;;;29.33;46.43;100328.53;5060232;28;45434;-77
2023/08/27 07:33:52;;;;;;;;;0.00;0.00;;;;;28.80;47.47;100334.75;5078806;27;45930;-76
2023/08/27 07:36:18;;;;;;;;;0.67;0.67;;;;;28.03;48.25;100340.19;5071569;27;46697;-76
2023/08/27 07:38:44;;;;;;;;;1.33;1.00;;;;;27.13;49.88;100349.38;5070373;27;45506;-77
2023/08/27 07:41:11;;;;;;;;;1.00;1.00;;;;;26.44;50.99;100360.19;5090302;27;46357;-76
2023/08/27 07:43:37;;;;;;;;;2.33;1.00;;;;;25.80;51.92;100366.09;5090480;27;45358;-77
2023/08/27 07:46:02;;;;;;;;;1.00;1.00;;;;;25.32;53.08;100372.22;5070270;27;45704;-76
2023/08/27 07:48:29;;;;;;;;;2.00;2.00;;;;;24.73;54.36;100355.41;5090388;27;45315;-76
2023/08/27 07:50:55;;;;;;;;;2.00;1.33;;;;;24.42;54.67;100348.31;5090298;27;45300;-76
2023/08/27 07:53:20;;;;;;;;;2.00;2.00;;;;;24.21;54.82;100362.28;5088331;27;45518;-77
2023/08/27 07:55:46;;;;;;;;;1.67;1.00;;;;;23.80;55.62;100354.56;5072286;27;45768;-77
2023/08/27 07:58:12;;;;;;;;;0.00;0.00;;;;;23.76;56.03;100352.00;5088685;27;45497;-76
2023/08/27 08:00:38;;;;;;;;;2.00;2.00;;;;;23.62;56.64;100360.38;5089157;27;45507;-76
2023/08/27 08:03:03;;;;;;;;;2.00;2.00;;;;;23.57;57.38;100364.94;5090968;27;45824;-76
2023/08/27 08:05:29;;;;;;;;;2.00;1.00;;;;;23.43;57.69;100342.16;5070253;27;47618;-76
2023/08/27 08:07:56;;;;;;;;;0.33;0.33;;;;;23.55;57.88;100364.09;5070779;27;45526;-75
2023/08/27 08:10:22;;;;;;;;;1.00;1.00;;;;;23.50;58.12;100358.91;5093903;27;45591;-75
2023/08/27 08:12:50;;;;;;;;;1.00;1.00;;;;;23.35;58.19;100329.97;5100641;27;45617;-75
2023/08/27 08:15:16;;;;;;;;;1.00;1.00;;;;;23.80;58.07;100375.03;5100263;27;45967;-75
2023/08/27 08:17:43;;;;;;;;;1.00;1.00;;;;;24.50;56.45;100373.91;5077456;27;45341;-76
2023/08/27 08:20:09;;;;;;;;;1.33;1.00;;;;;25.45;54.25;100378.06;5086933;27;45367;-76
2023/08/27 08:22:35;;;;;;;;;0.00;0.00;;;;;26.01;53.22;100377.00;5090361;27;45374;-77
2023/08/27 08:25:01;;;;;;;;;1.67;1.00;;;;;26.27;52.77;100394.78;5089175;27;45372;-76
2023/08/27 08:27:26;;;;;;;;;1.00;1.00;;;;;26.22;52.39;100399.41;5069409;27;45531;-76
2023/08/27 08:29:52;;;;;;;;;1.00;1.00;;;;;25.93;52.19;100396.88;5047793;28;45539;-77
2023/08/27 08:32:18;;;;;;;;;1.00;1.00;;;;;25.89;52.43;100405.06;5059535;28;45386;-77
2023/08/27 08:34:44;;;;;;;;;0.67;0.67;;;;;25.89;51.40;100391.66;5063366;27;46160;-78
2023/08/27 08:37:10;;;;;;;;;1.00;1.00;;;;;25.93;51.20;100420.97;5055079;28;45636;-75
2023/08/27 08:39:36;;;;;;;;;0.00;0.00;;;;;26.11;52.39;100423.91;5075495;27;45265;-75
2023/08/27 08:42:24;;;;;;;;;0.00;0.00;;;;;26.25;51.38;100431.44;5078123;28;45425;-76
2023/08/27 08:45:00;;;;;;;;;1.33;1.33;;;;;26.36;50.95;100440.81;5078261;27;46056;-78
2023/08/27 08:47:28;;;;;;;;;1.00;1.00;;;;;26.44;52.07;100431.63;5078211;28;45465;-76
2023/08/27 08:49:57;;;;;;;;;1.00;1.00;;;;;26.87;51.07;100440.72;5075403;27;45307;-76
2023/08/27 08:52:44;;;;;;;;;1.67;1.00;;;;;26.74;49.52;100446.56;5079204;28;45216;-76
2023/08/27 08:55:11;;;;;;;;;0.33;0.33;;;;;26.77;49.37;100443.75;5077227;28;45486;-76
2023/08/27 08:57:56;;;;;;;;;1.00;1.00;;;;;26.67;48.72;100437.00;5078378;28;45430;-76
2023/08/27 09:00:24;;;;;;;;;0.67;0.67;;;;;26.08;48.54;100413.31;5077386;28;45513;-77
2023/08/27 09:02:51;;;;;;;;;1.00;1.00;;;;;25.71;50.72;100404.75;5078454;28;45526;-77
2023/08/27 09:05:17;;;;;;;;;1.00;1.00;;;;;25.53;52.69;100433.03;5059736;28;47952;-76
2023/08/27 09:07:45;;;;;;;;;3.00;2.00;;;;;25.15;53.11;100416.41;5078162;28;45244;-75
2023/08/27 09:10:12;;;;;;;;;2.00;1.00;;;;;24.84;53.70;100407.63;5077938;28;45398;-76
2023/08/27 09:12:41;;;;;;;;;1.00;1.00;;;;;24.61;54.43;100431.47;5079203;28;45279;-76
2023/08/27 09:15:09;;;;;;;;;0.00;0.00;;;;;24.36;54.60;100415.25;5077729;28;45759;-76
2023/08/27 09:17:35;;;;;;;;;1.00;0.00;;;;;24.19;55.67;100414.84;5077400;28;45252;-76
2023/08/27 09:20:02;;;;;;;;;0.00;0.00;;;;;23.96;56.14;100418.16;5046465;28;45428;-77
2023/08/27 09:22:28;;;;;;;;;0.00;0.00;;;;;24.07;55.22;100432.06;5043732;28;45544;-76
2023/08/27 09:24:54;;;;;;;;;1.00;1.00;;;;;24.22;56.04;100422.78;5078122;28;45822;-77
2023/08/27 09:27:20;;;;;;;;;0.00;0.00;;;;;24.61;53.68;100425.22;5060307;28;45485;-77
2023/08/27 09:29:47;;;;;;;;;0.67;0.00;;;;;24.91;54.03;100439.47;5077611;28;45323;-76
2023/08/27 09:32:24;;;;;;;;;0.00;0.00;;;;;25.33;52.47;100448.88;5078932;28;45501;-77
2023/08/27 09:34:57;;;;;;;;;0.67;0.67;;;;;25.30;53.05;100443.59;5076615;27;46073;-77
2023/08/27 09:37:25;;;;;;;;;0.00;0.00;;;;;24.99;53.47;100441.91;5077061;28;45381;-76
2023/08/27 09:39:51;;;;;;;;;0.00;0.00;;;;;24.70;54.51;100427.63;5078895;28;45438;-76
2023/08/27 09:42:17;;;;;;;;;1.00;0.00;;;;;24.39;54.61;100401.81;5071971;28;45790;-77
2023/08/27 09:44:50;;;;;;;;;1.00;0.33;;;;;24.40;55.47;100432.91;5059764;28;47672;-76
2023/08/27 09:47:16;;;;;;;;;2.00;1.00;;;;;24.19;55.52;100428.19;5078149;28;45464;-77
2023/08/27 09:49:43;;;;;;;;;0.33;0.33;;;;;23.77;56.25;100436.41;5059961;28;45425;-78
2023/08/27 09:52:08;;;;;;;;;0.00;0.00;;;;;23.56;56.44;100429.88;5057904;28;45238;-76
2023/08/27 09:54:35;;;;;;;;;2.00;1.00;;;;;23.41;57.70;100423.09;5039456;28;46097;-77
2023/08/27 09:57:00;;;;;;;;;0.00;0.00;;;;;23.49;58.55;100423.78;5039861;28;45410;-76
2023/08/27 09:59:28;;;;;;;;;0.00;0.00;;;;;23.99;55.82;100442.97;5058237;28;45371;-76
2023/08/27 10:01:54;;;;;;;;;2.00;1.00;;;;;24.37;56.39;100432.13;5057681;28;45353;-77
2023/08/27 10:04:21;;;;;;;;;1.00;1.00;;;;;24.68;53.92;100418.78;5073520;28;45560;-75
2023/08/27 10:06:47;;;;;;;;;0.67;0.67;;;;;24.78;54.32;100422.03;5076994;28;45487;-75
2023/08/27 10:09:15;;;;;;;;;0.00;0.00;;;;;24.97;54.34;100414.34;5077686;27;45307;-77
2023/08/27 10:11:45;;;;;;;;;1.00;1.00;;;;;25.52;52.94;100420.56;5077567;28;45603;-78
2023/08/27 10:14:13;;;;;;;;;1.00;0.00;;;;;25.78;52.98;100419.69;5058837;28;47812;-78
2023/08/27 10:16:40;;;;;;;;;0.67;0.67;;;;;25.92;51.63;100423.69;5076910;28;45469;-76
2023/08/27 10:19:06;;;;;;;;;5.00;5.00;;;;;26.19;51.50;100417.34;5077078;28;45212;-77
2023/08/27 10:21:32;;;;;;;;;1.00;1.00;;;;;26.71;49.81;100409.16;5077671;28;45537;-77
2023/08/27 10:23:58;;;;;;;;;2.00;2.00;;;;;27.38;48.79;100384.13;5059272;27;46890;-77
2023/08/27 10:26:24;;;;;;;;;0.00;0.00;;;;;28.13;48.11;100388.03;5077582;27;45473;-77
2023/08/27 10:28:53;;;;;;;;;0.00;0.00;;;;;28.81;47.14;100389.38;5077681;28;45231;-76
2023/08/27 10:31:19;;;;;;;;;1.00;1.00;;;;;29.15;44.66;100361.75;5078096;27;45402;-77
2023/08/27 10:33:46;;;;;;;;;2.67;2.67;;;;;29.37;44.45;100390.25;5077367;28;45501;-76
2023/08/27 10:36:18;;;;;;;;;2.00;2.00;;;;;29.30;46.34;100395.94;5077340;28;45929;-77
2023/08/27 10:38:46;;;;;;;;;3.00;2.00;;;;;29.20;45.37;100388.41;5077192;27;45430;-77
2023/08/27 10:41:17;;;;;;;;;1.00;1.00;;;;;28.92;44.62;100379.00;5059546;28;45279;-77
2023/08/27 10:43:43;;;;;;;;;3.00;1.00;;;;;29.03;43.91;100406.22;5077625;28;45495;-76
2023/08/27 10:46:15;;;;;;;;;0.33;0.33;;;;;28.84;43.13;100406.25;5076913;27;45477;-76
2023/08/27 10:48:47;;;;;;;;;1.00;1.00;;;;;28.27;42.69;100413.38;5077449;28;45479;-77
2023/08/27 10:51:14;;;;;;;;;1.00;0.67;;;;;28.03;43.08;100410.84;5077587;28;45359;-76
2023/08/27 10:53:49;;;;;;;;;1.33;1.00;;;;;27.77;42.54;100406.63;5058725;28;46919;-76
2023/08/27 10:56:36;;;;;;;;;0.00;0.00;;;;;27.77;42.10;100417.34;5075971;27;45629;-76
2023/08/27 10:59:10;;;;;;;;;1.67;0.67;;;;;27.32;43.68;100423.75;5077404;28;45421;-77
2023/08/27 11:01:59;;;;;;;;;3.00;2.00;;;;;27.43;43.53;100426.84;5077401;27;45520;-77
2023/08/27 11:04:36;;;;;;;;;0.00;0.00;;;;;27.51;43.21;100413.09;5077123;28;46094;-76
2023/08/27 11:07:12;;;;;;;;;1.00;1.00;;;;;27.86;43.12;100416.97;5077791;28;45315;-76
2023/08/27 11:09:56;;;;;;;;;1.00;0.00;;;;;28.28;42.71;100412.44;5076080;28;45361;-78
2023/08/27 11:12:27;;;;;;;;;1.00;1.00;;;;;28.36;39.78;100413.81;5059108;28;45477;-76
2023/08/27 11:14:54;;;;;;;;;0.00;0.00;;;;;28.28;39.50;100413.31;5076548;27;45394;-76
2023/08/27 11:17:28;;;;;;;;;1.00;0.33;;;;;28.40;39.45;100427.13;5058398;28;45345;-76
2023/08/27 11:19:57;;;;;;;;;0.00;0.00;;;;;28.12;38.83;100406.91;5058849;28;45310;-76
2023/08/27 11:22:24;;;;;;;;;7.33;7.00;;;;;27.96;38.63;100404.91;5077248;28;45422;-77
2023/08/27 11:24:52;;;;;;;;;1.00;0.00;;;;;28.28;39.00;100413.31;5058783;28;46712;-77